sensor_id;sensor_type;location;lat;lon;timestamp;pressure;altitude;pressure_sealevel;temperature;humidity
71873;BME280;59745;52.924;-2.388;2022-09-06T00:03:00;98967.81;;;19.16;52.10
71873;BME280;59745;52.924;-2.388;2022-09-06T00:05:24;98972.55;;;18.75;52.47
71873;BME280;59745;52.924;-2.388;2022-09-06T00:07:49;98972.08;;;19.00;52.23
71873;BME280;59745;52.924;-2.388;2022-09-06T00:10:14;98960.56;;;19.69;51.34
71873;BME280;59745;52.924;-2.388;2022-09-06T00:12:39;98957.06;;;18.93;52.13
71873;BME280;59745;52.924;-2.388;2022-09-06T00:15:05;98956.32;;;19.05;51.32
71873;BME280;59745;52.924;-2.388;2022-09-06T00:17:30;98943.47;;;19.54;50.75
71873;BME280;59745;52.924;-2.388;2022-09-06T00:19:55;98947.12;;;19.95;49.99
71873;BME280;59745;52.924;-2.388;2022-09-06T00:22:20;98942.01;;;19.79;49.66
71873;BME280;59745;52.924;-2.388;2022-09-06T00:24:45;98942.60;;;19.50;50.06
71873;BME280;59745;52.924;-2.388;2022-09-06T00:27:10;98940.52;;;19.47;50.58
71873;BME280;59745;52.924;-2.388;2022-09-06T00:29:35;98935.33;;;19.28;50.26
71873;BME280;59745;52.924;-2.388;2022-09-06T00:32:01;98931.05;;;19.66;50.16
71873;BME280;59745;52.924;-2.388;2022-09-06T00:34:26;98936.51;;;19.18;50.85
71873;BME280;59745;52.924;-2.388;2022-09-06T00:36:51;98936.33;;;19.37;51.04
71873;BME280;59745;52.924;-2.388;2022-09-06T00:39:16;98938.73;;;18.68;52.27
71873;BME280;59745;52.924;-2.388;2022-09-06T00:41:41;98946.06;;;19.25;51.61
71873;BME280;59745;52.924;-2.388;2022-09-06T00:44:06;98947.58;;;19.25;51.12
71873;BME280;59745;52.924;-2.388;2022-09-06T00:46:32;98946.60;;;18.43;52.75
71873;BME280;59745;52.924;-2.388;2022-09-06T00:49:01;98940.84;;;19.03;51.64
71873;BME280;59745;52.924;-2.388;2022-09-06T00:51:23;98940.40;;;19.18;51.26
71873;BME280;59745;52.924;-2.388;2022-09-06T00:53:48;98937.75;;;19.57;50.17
71873;BME280;59745;52.924;-2.388;2022-09-06T00:56:12;98934.32;;;19.41;50.04
71873;BME280;59745;52.924;-2.388;2022-09-06T00:58:37;98942.53;;;19.16;50.43
71873;BME280;59745;52.924;-2.388;2022-09-06T01:01:03;98939.93;;;18.92;50.34
71873;BME280;59745;52.924;-2.388;2022-09-06T01:03:28;98937.19;;;18.74;51.19
71873;BME280;59745;52.924;-2.388;2022-09-06T01:06:02;98936.11;;;18.89;51.67
71873;BME280;59745;52.924;-2.388;2022-09-06T01:08:25;98936.87;;;19.33;50.11
71873;BME280;59745;52.924;-2.388;2022-09-06T01:10:56;98934.81;;;19.45;49.29
71873;BME280;59745;52.924;-2.388;2022-09-06T01:13:19;98937.11;;;19.75;49.21
71873;BME280;59745;52.924;-2.388;2022-09-06T01:15:41;98939.35;;;19.80;48.46
71873;BME280;59745;52.924;-2.388;2022-09-06T01:18:06;98949.47;;;19.94;48.31
71873;BME280;59745;52.924;-2.388;2022-09-06T01:20:35;98946.60;;;20.24;48.24
71873;BME280;59745;52.924;-2.388;2022-09-06T01:23:16;98945.09;;;20.00;47.44
71873;BME280;59745;52.924;-2.388;2022-09-06T01:25:30;98938.15;;;20.29;47.10
71873;BME280;59745;52.924;-2.388;2022-09-06T01:30:06;98928.68;;;20.38;47.08
71873;BME280;59745;52.924;-2.388;2022-09-06T01:32:34;98929.48;;;20.04;46.90
71873;BME280;59745;52.924;-2.388;2022-09-06T01:35:00;98933.70;;;19.85;47.47
71873;BME280;59745;52.924;-2.388;2022-09-06T01:37:22;98930.82;;;19.81;47.75
71873;BME280;59745;52.924;-2.388;2022-09-06T01:39:45;98927.04;;;19.63;47.63
71873;BME280;59745;52.924;-2.388;2022-09-06T01:42:14;98927.28;;;20.00;47.57
71873;BME280;59745;52.924;-2.388;2022-09-06T01:44:37;98929.71;;;20.14;47.27
71873;BME280;59745;52.924;-2.388;2022-09-06T01:47:11;98928.30;;;20.42;46.64
71873;BME280;59745;52.924;-2.388;2022-09-06T01:49:35;98932.47;;;20.46;46.48
71873;BME280;59745;52.924;-2.388;2022-09-06T01:52:05;98936.20;;;19.75;46.42
71873;BME280;59745;52.924;-2.388;2022-09-06T01:54:25;98934.13;;;20.08;46.86
71873;BME280;59745;52.924;-2.388;2022-09-06T01:56:49;98931.92;;;20.05;46.64
71873;BME280;59745;52.924;-2.388;2022-09-06T01:59:20;98932.78;;;20.19;47.33
71873;BME280;59745;52.924;-2.388;2022-09-06T02:01:35;98932.56;;;20.17;46.75
71873;BME280;59745;52.924;-2.388;2022-09-06T02:04:02;98927.21;;;20.18;46.82
71873;BME280;59745;52.924;-2.388;2022-09-06T02:06:26;98920.56;;;19.77;47.27
71873;BME280;59745;52.924;-2.388;2022-09-06T02:08:49;98919.51;;;19.34;48.13
71873;BME280;59745;52.924;-2.388;2022-09-06T02:11:13;98921.21;;;19.79;48.04
71873;BME280;59745;52.924;-2.388;2022-09-06T02:13:38;98913.09;;;19.74;47.69
71873;BME280;59745;52.924;-2.388;2022-09-06T02:16:04;98908.54;;;19.43;47.94
71873;BME280;59745;52.924;-2.388;2022-09-06T02:18:32;98906.02;;;19.71;47.67
71873;BME280;59745;52.924;-2.388;2022-09-06T02:20:55;98907.87;;;20.07;47.61
71873;BME280;59745;52.924;-2.388;2022-09-06T02:23:19;98910.68;;;20.15;46.53
71873;BME280;59745;52.924;-2.388;2022-09-06T02:25:48;98904.79;;;20.29;46.40
71873;BME280;59745;52.924;-2.388;2022-09-06T02:28:08;98907.16;;;20.10;46.78
71873;BME280;59745;52.924;-2.388;2022-09-06T02:30:37;98903.76;;;20.51;45.97
71873;BME280;59745;52.924;-2.388;2022-09-06T02:33:01;98905.25;;;20.46;45.68
71873;BME280;59745;52.924;-2.388;2022-09-06T02:35:24;98905.72;;;20.04;46.39
71873;BME280;59745;52.924;-2.388;2022-09-06T02:37:49;98901.19;;;20.44;46.08
71873;BME280;59745;52.924;-2.388;2022-09-06T02:40:14;98903.98;;;20.48;46.00
71873;BME280;59745;52.924;-2.388;2022-09-06T02:42:39;98907.02;;;20.50;45.43
71873;BME280;59745;52.924;-2.388;2022-09-06T02:45:05;98903.94;;;20.19;45.36
71873;BME280;59745;52.924;-2.388;2022-09-06T02:47:29;98899.98;;;20.33;45.91
71873;BME280;59745;52.924;-2.388;2022-09-06T02:49:54;98899.92;;;20.41;45.52
71873;BME280;59745;52.924;-2.388;2022-09-06T02:52:19;98895.74;;;20.57;44.99
71873;BME280;59745;52.924;-2.388;2022-09-06T02:54:44;98892.06;;;21.11;44.57
71873;BME280;59745;52.924;-2.388;2022-09-06T02:57:10;98896.06;;;20.70;44.58
71873;BME280;59745;52.924;-2.388;2022-09-06T02:59:35;98891.83;;;21.13;44.31
71873;BME280;59745;52.924;-2.388;2022-09-06T03:02:00;98887.94;;;21.09;43.94
71873;BME280;59745;52.924;-2.388;2022-09-06T03:04:25;98886.52;;;20.75;44.54
71873;BME280;59745;52.924;-2.388;2022-09-06T03:06:50;98889.28;;;20.83;44.04
71873;BME280;59745;52.924;-2.388;2022-09-06T03:09:15;98891.48;;;20.44;44.51
71873;BME280;59745;52.924;-2.388;2022-09-06T03:11:40;98890.00;;;20.61;44.60
71873;BME280;59745;52.924;-2.388;2022-09-06T03:14:06;98887.93;;;20.81;44.40
71873;BME280;59745;52.924;-2.388;2022-09-06T03:16:31;98891.10;;;20.86;44.46
71873;BME280;59745;52.924;-2.388;2022-09-06T03:18:56;98891.79;;;20.96;44.22
71873;BME280;59745;52.924;-2.388;2022-09-06T03:21:21;98891.98;;;21.02;43.92
71873;BME280;59745;52.924;-2.388;2022-09-06T03:23:46;98893.42;;;20.91;44.36
71873;BME280;59745;52.924;-2.388;2022-09-06T03:26:12;98890.70;;;20.98;44.97
71873;BME280;59745;52.924;-2.388;2022-09-06T03:28:37;98888.75;;;20.37;45.35
71873;BME280;59745;52.924;-2.388;2022-09-06T03:31:02;98886.87;;;20.53;45.42
71873;BME280;59745;52.924;-2.388;2022-09-06T03:33:27;98885.92;;;20.59;45.28
71873;BME280;59745;52.924;-2.388;2022-09-06T03:35:55;98885.19;;;20.24;45.82
71873;BME280;59745;52.924;-2.388;2022-09-06T03:38:18;98886.20;;;20.50;45.60
71873;BME280;59745;52.924;-2.388;2022-09-06T03:40:44;98882.15;;;20.78;45.89
71873;BME280;59745;52.924;-2.388;2022-09-06T03:43:08;98877.06;;;19.98;46.69
71873;BME280;59745;52.924;-2.388;2022-09-06T03:45:33;98873.05;;;20.51;46.35
71873;BME280;59745;52.924;-2.388;2022-09-06T03:47:59;98870.50;;;20.68;46.19
71873;BME280;59745;52.924;-2.388;2022-09-06T03:50:24;98867.68;;;20.36;46.41
71873;BME280;59745;52.924;-2.388;2022-09-06T03:52:49;98864.91;;;20.18;46.84
71873;BME280;59745;52.924;-2.388;2022-09-06T03:55:14;98870.90;;;20.08;46.76
71873;BME280;59745;52.924;-2.388;2022-09-06T03:57:39;98876.06;;;19.54;48.22
71873;BME280;59745;52.924;-2.388;2022-09-06T04:00:06;98874.74;;;19.89;47.89
71873;BME280;59745;52.924;-2.388;2022-09-06T04:02:30;98874.12;;;19.25;48.76
71873;BME280;59745;52.924;-2.388;2022-09-06T04:04:56;98880.73;;;19.77;48.19
71873;BME280;59745;52.924;-2.388;2022-09-06T04:07:22;98877.72;;;19.79;47.80
71873;BME280;59745;52.924;-2.388;2022-09-06T04:09:46;98882.38;;;19.82;48.20
71873;BME280;59745;52.924;-2.388;2022-09-06T04:12:12;98877.62;;;19.98;48.01
71873;BME280;59745;52.924;-2.388;2022-09-06T04:14:37;98878.76;;;20.24;47.73
71873;BME280;59745;52.924;-2.388;2022-09-06T04:17:02;98874.75;;;20.23;47.66
71873;BME280;59745;52.924;-2.388;2022-09-06T04:19:28;98871.11;;;19.86;48.22
71873;BME280;59745;52.924;-2.388;2022-09-06T04:21:53;98867.42;;;19.83;48.49
71873;BME280;59745;52.924;-2.388;2022-09-06T04:24:19;98869.19;;;19.56;49.02
71873;BME280;59745;52.924;-2.388;2022-09-06T04:26:44;98872.38;;;19.53;48.96
71873;BME280;59745;52.924;-2.388;2022-09-06T04:29:09;98865.82;;;19.77;49.15
71873;BME280;59745;52.924;-2.388;2022-09-06T04:31:34;98865.46;;;19.61;48.84
71873;BME280;59745;52.924;-2.388;2022-09-06T04:33:59;98862.29;;;19.66;48.74
71873;BME280;59745;52.924;-2.388;2022-09-06T04:36:25;98857.69;;;19.65;48.88
71873;BME280;59745;52.924;-2.388;2022-09-06T04:38:50;98854.16;;;19.78;48.74
71873;BME280;59745;52.924;-2.388;2022-09-06T04:41:16;98852.46;;;19.50;49.19
71873;BME280;59745;52.924;-2.388;2022-09-06T04:43:40;98844.97;;;19.59;50.39
71873;BME280;59745;52.924;-2.388;2022-09-06T04:46:10;98838.41;;;19.47;50.28
71873;BME280;59745;52.924;-2.388;2022-09-06T04:48:32;98835.66;;;19.36;50.29
71873;BME280;59745;52.924;-2.388;2022-09-06T04:50:57;98840.81;;;19.95;49.67
71873;BME280;59745;52.924;-2.388;2022-09-06T04:53:22;98829.43;;;19.37;50.45
71873;BME280;59745;52.924;-2.388;2022-09-06T04:55:48;98826.30;;;19.19;50.70
71873;BME280;59745;52.924;-2.388;2022-09-06T04:58:13;98820.43;;;19.01;51.55
71873;BME280;59745;52.924;-2.388;2022-09-06T05:00:38;98817.73;;;18.99;51.26
71873;BME280;59745;52.924;-2.388;2022-09-06T05:03:04;98828.68;;;19.67;50.52
71873;BME280;59745;52.924;-2.388;2022-09-06T05:05:30;98832.51;;;19.07;51.11
71873;BME280;59745;52.924;-2.388;2022-09-06T05:07:55;98834.49;;;19.31;51.40
71873;BME280;59745;52.924;-2.388;2022-09-06T05:10:21;98837.56;;;19.14;51.37
71873;BME280;59745;52.924;-2.388;2022-09-06T05:12:47;98841.13;;;19.33;51.03
71873;BME280;59745;52.924;-2.388;2022-09-06T05:15:11;98839.62;;;19.20;51.82
71873;BME280;59745;52.924;-2.388;2022-09-06T05:17:36;98839.27;;;19.92;50.74
71873;BME280;59745;52.924;-2.388;2022-09-06T05:20:02;98837.93;;;19.95;50.09
71873;BME280;59745;52.924;-2.388;2022-09-06T05:22:27;98839.03;;;20.16;49.21
71873;BME280;59745;52.924;-2.388;2022-09-06T05:24:53;98835.75;;;20.50;49.09
71873;BME280;59745;52.924;-2.388;2022-09-06T05:27:18;98837.38;;;20.64;48.11
71873;BME280;59745;52.924;-2.388;2022-09-06T05:29:44;98838.35;;;21.13;47.53
71873;BME280;59745;52.924;-2.388;2022-09-06T05:32:09;98835.22;;;20.94;47.61
71873;BME280;59745;52.924;-2.388;2022-09-06T05:34:34;98828.19;;;21.17;47.53
71873;BME280;59745;52.924;-2.388;2022-09-06T05:37:00;98830.88;;;21.47;46.74
71873;BME280;59745;52.924;-2.388;2022-09-06T05:39:25;98833.35;;;21.15;46.57
71873;BME280;59745;52.924;-2.388;2022-09-06T05:41:50;98830.59;;;21.26;45.94
71873;BME280;59745;52.924;-2.388;2022-09-06T05:44:16;98825.09;;;21.34;45.73
71873;BME280;59745;52.924;-2.388;2022-09-06T05:46:42;98826.71;;;21.60;45.91
71873;BME280;59745;52.924;-2.388;2022-09-06T05:49:07;98835.46;;;21.48;45.87
71873;BME280;59745;52.924;-2.388;2022-09-06T05:51:32;98833.81;;;21.37;45.62
71873;BME280;59745;52.924;-2.388;2022-09-06T05:53:58;98825.24;;;20.96;45.92
71873;BME280;59745;52.924;-2.388;2022-09-06T05:56:23;98822.01;;;21.30;45.81
71873;BME280;59745;52.924;-2.388;2022-09-06T05:58:49;98822.73;;;21.20;46.33
71873;BME280;59745;52.924;-2.388;2022-09-06T06:01:16;98820.56;;;21.15;46.21
71873;BME280;59745;52.924;-2.388;2022-09-06T06:03:40;98818.12;;;21.37;46.09
71873;BME280;59745;52.924;-2.388;2022-09-06T06:06:06;98817.60;;;21.37;46.11
71873;BME280;59745;52.924;-2.388;2022-09-06T06:08:30;98818.21;;;21.09;45.90
71873;BME280;59745;52.924;-2.388;2022-09-06T06:10:58;98811.45;;;21.71;45.93
71873;BME280;59745;52.924;-2.388;2022-09-06T06:13:22;98817.09;;;21.36;45.59
71873;BME280;59745;52.924;-2.388;2022-09-06T06:15:47;98819.92;;;20.99;45.96
71873;BME280;59745;52.924;-2.388;2022-09-06T06:18:12;98819.63;;;20.85;46.81
71873;BME280;59745;52.924;-2.388;2022-09-06T06:20:38;98821.42;;;21.06;46.37
71873;BME280;59745;52.924;-2.388;2022-09-06T06:23:03;98818.33;;;20.95;46.54
71873;BME280;59745;52.924;-2.388;2022-09-06T06:25:29;98817.45;;;21.01;46.56
71873;BME280;59745;52.924;-2.388;2022-09-06T06:27:54;98808.73;;;21.41;46.19
71873;BME280;59745;52.924;-2.388;2022-09-06T06:30:20;98801.02;;;21.14;45.58
71873;BME280;59745;52.924;-2.388;2022-09-06T06:32:45;98805.48;;;21.19;45.47
71873;BME280;59745;52.924;-2.388;2022-09-06T06:35:10;98805.85;;;21.61;45.73
71873;BME280;59745;52.924;-2.388;2022-09-06T06:37:36;98805.69;;;21.39;46.00
71873;BME280;59745;52.924;-2.388;2022-09-06T06:40:01;98809.86;;;21.37;45.71
71873;BME280;59745;52.924;-2.388;2022-09-06T06:42:26;98814.28;;;21.16;46.81
71873;BME280;59745;52.924;-2.388;2022-09-06T06:44:52;98811.77;;;21.24;45.97
71873;BME280;59745;52.924;-2.388;2022-09-06T06:47:18;98804.77;;;21.57;45.40
71873;BME280;59745;52.924;-2.388;2022-09-06T06:49:43;98802.97;;;21.39;45.66
71873;BME280;59745;52.924;-2.388;2022-09-06T06:52:09;98803.81;;;21.06;46.09
71873;BME280;59745;52.924;-2.388;2022-09-06T06:54:34;98807.93;;;21.57;45.83
71873;BME280;59745;52.924;-2.388;2022-09-06T06:56:59;98801.57;;;21.15;46.16
71873;BME280;59745;52.924;-2.388;2022-09-06T06:59:25;98805.20;;;21.54;45.95
71873;BME280;59745;52.924;-2.388;2022-09-06T07:01:50;98804.80;;;21.19;46.96
71873;BME280;59745;52.924;-2.388;2022-09-06T07:04:16;98804.58;;;21.47;46.04
71873;BME280;59745;52.924;-2.388;2022-09-06T07:06:47;98809.57;;;21.70;45.89
71873;BME280;59745;52.924;-2.388;2022-09-06T07:09:06;98806.36;;;21.51;46.13
71873;BME280;59745;52.924;-2.388;2022-09-06T07:11:32;98806.00;;;21.40;45.58
71873;BME280;59745;52.924;-2.388;2022-09-06T07:13:57;98796.57;;;22.05;45.14
71873;BME280;59745;52.924;-2.388;2022-09-06T07:16:23;98797.75;;;22.09;45.06
71873;BME280;59745;52.924;-2.388;2022-09-06T07:18:50;98799.78;;;21.55;45.14
71873;BME280;59745;52.924;-2.388;2022-09-06T07:21:15;98800.93;;;21.56;45.30
71873;BME280;59745;52.924;-2.388;2022-09-06T07:23:39;98807.02;;;21.81;45.78
71873;BME280;59745;52.924;-2.388;2022-09-06T07:26:05;98804.21;;;21.90;45.41
71873;BME280;59745;52.924;-2.388;2022-09-06T07:28:31;98803.17;;;21.67;45.14
71873;BME280;59745;52.924;-2.388;2022-09-06T07:30:56;98807.84;;;22.14;45.43
71873;BME280;59745;52.924;-2.388;2022-09-06T07:33:21;98801.90;;;22.19;45.13
71873;BME280;59745;52.924;-2.388;2022-09-06T07:35:55;98806.13;;;22.23;44.92
71873;BME280;59745;52.924;-2.388;2022-09-06T07:38:12;98802.25;;;22.12;44.77
71873;BME280;59745;52.924;-2.388;2022-09-06T07:40:37;98802.36;;;22.25;44.91
71873;BME280;59745;52.924;-2.388;2022-09-06T07:43:02;98799.42;;;22.21;44.46
71873;BME280;59745;52.924;-2.388;2022-09-06T07:45:28;98800.46;;;22.48;44.41
71873;BME280;59745;52.924;-2.388;2022-09-06T07:47:53;98799.14;;;22.43;43.82
71873;BME280;59745;52.924;-2.388;2022-09-06T07:50:19;98791.75;;;22.82;43.26
71873;BME280;59745;52.924;-2.388;2022-09-06T07:52:44;98792.92;;;22.36;43.75
71873;BME280;59745;52.924;-2.388;2022-09-06T07:55:09;98795.79;;;21.86;44.68
71873;BME280;59745;52.924;-2.388;2022-09-06T07:57:35;98791.95;;;21.82;45.53
71873;BME280;59745;52.924;-2.388;2022-09-06T08:00:00;98786.28;;;21.92;44.75
71873;BME280;59745;52.924;-2.388;2022-09-06T08:02:26;98786.18;;;21.74;45.63
71873;BME280;59745;52.924;-2.388;2022-09-06T08:04:51;98787.54;;;21.92;45.09
71873;BME280;59745;52.924;-2.388;2022-09-06T08:07:17;98792.69;;;22.34;45.40
71873;BME280;59745;52.924;-2.388;2022-09-06T08:09:42;98799.32;;;22.32;44.72
71873;BME280;59745;52.924;-2.388;2022-09-06T08:12:08;98801.70;;;22.36;44.29
71873;BME280;59745;52.924;-2.388;2022-09-06T08:14:34;98799.73;;;22.23;44.51
71873;BME280;59745;52.924;-2.388;2022-09-06T08:16:58;98786.49;;;22.06;44.44
71873;BME280;59745;52.924;-2.388;2022-09-06T08:19:24;98791.91;;;21.96;44.33
71873;BME280;59745;52.924;-2.388;2022-09-06T08:21:49;98787.48;;;22.50;43.81
71873;BME280;59745;52.924;-2.388;2022-09-06T08:24:15;98784.58;;;22.90;43.59
71873;BME280;59745;52.924;-2.388;2022-09-06T08:26:40;98783.59;;;22.54;43.38
71873;BME280;59745;52.924;-2.388;2022-09-06T08:29:06;98781.76;;;22.50;43.33
71873;BME280;59745;52.924;-2.388;2022-09-06T08:31:32;98780.04;;;23.18;42.91
71873;BME280;59745;52.924;-2.388;2022-09-06T08:33:56;98781.55;;;22.93;42.72
71873;BME280;59745;52.924;-2.388;2022-09-06T08:36:22;98780.90;;;23.07;42.50
71873;BME280;59745;52.924;-2.388;2022-09-06T08:38:47;98779.61;;;22.82;42.60
71873;BME280;59745;52.924;-2.388;2022-09-06T08:41:20;98778.54;;;23.22;42.24
71873;BME280;59745;52.924;-2.388;2022-09-06T08:43:38;98777.27;;;22.99;42.30
71873;BME280;59745;52.924;-2.388;2022-09-06T08:46:03;98777.20;;;23.01;42.62
71873;BME280;59745;52.924;-2.388;2022-09-06T08:48:30;98779.71;;;23.15;42.77
71873;BME280;59745;52.924;-2.388;2022-09-06T08:51:01;98774.96;;;23.05;42.26
71873;BME280;59745;52.924;-2.388;2022-09-06T08:53:18;98769.09;;;23.34;42.42
71873;BME280;59745;52.924;-2.388;2022-09-06T08:55:47;98771.73;;;23.36;42.36
71873;BME280;59745;52.924;-2.388;2022-09-06T08:58:20;98774.89;;;23.67;42.00
71873;BME280;59745;52.924;-2.388;2022-09-06T09:00:35;98776.20;;;23.69;42.44
71873;BME280;59745;52.924;-2.388;2022-09-06T09:03:05;98779.28;;;23.83;42.44
71873;BME280;59745;52.924;-2.388;2022-09-06T09:05:26;98785.15;;;23.99;41.82
71873;BME280;59745;52.924;-2.388;2022-09-06T09:07:58;98788.24;;;24.08;40.81
71873;BME280;59745;52.924;-2.388;2022-09-06T09:10:20;98792.35;;;24.16;40.74
71873;BME280;59745;52.924;-2.388;2022-09-06T09:12:44;98792.63;;;24.22;40.44
71873;BME280;59745;52.924;-2.388;2022-09-06T09:15:09;98789.96;;;24.29;40.03
71873;BME280;59745;52.924;-2.388;2022-09-06T09:17:31;98791.78;;;24.62;40.28
71873;BME280;59745;52.924;-2.388;2022-09-06T09:19:56;98789.73;;;24.97;39.56
71873;BME280;59745;52.924;-2.388;2022-09-06T09:22:23;98784.07;;;24.45;39.59
71873;BME280;59745;52.924;-2.388;2022-09-06T09:24:47;98785.74;;;24.42;39.30
71873;BME280;59745;52.924;-2.388;2022-09-06T09:27:12;98782.34;;;24.50;39.24
71873;BME280;59745;52.924;-2.388;2022-09-06T09:32:02;98775.67;;;25.14;38.93
71873;BME280;59745;52.924;-2.388;2022-09-06T09:34:29;98773.96;;;24.87;39.32
71873;BME280;59745;52.924;-2.388;2022-09-06T09:39:18;98767.07;;;25.32;38.31
71873;BME280;59745;52.924;-2.388;2022-09-06T09:41:43;98766.52;;;25.20;38.00
71873;BME280;59745;52.924;-2.388;2022-09-06T09:44:09;98769.98;;;24.98;38.13
71873;BME280;59745;52.924;-2.388;2022-09-06T09:46:34;98765.33;;;24.81;38.47
71873;BME280;59745;52.924;-2.388;2022-09-06T09:49:01;98765.05;;;25.26;37.93
71873;BME280;59745;52.924;-2.388;2022-09-06T09:51:24;98771.72;;;25.36;38.71
71873;BME280;59745;52.924;-2.388;2022-09-06T09:53:51;98782.24;;;25.21;38.83
71873;BME280;59745;52.924;-2.388;2022-09-06T09:56:14;98771.77;;;25.09;37.67
71873;BME280;59745;52.924;-2.388;2022-09-06T09:58:39;98771.66;;;24.93;37.97
71873;BME280;59745;52.924;-2.388;2022-09-06T10:01:11;98772.80;;;25.17;38.15
71873;BME280;59745;52.924;-2.388;2022-09-06T10:03:29;98774.92;;;25.48;37.99
71873;BME280;59745;52.924;-2.388;2022-09-06T10:05:55;98776.47;;;25.22;37.31
71873;BME280;59745;52.924;-2.388;2022-09-06T10:08:23;98776.51;;;25.30;36.85
71873;BME280;59745;52.924;-2.388;2022-09-06T10:10:46;98782.86;;;25.63;37.00
71873;BME280;59745;52.924;-2.388;2022-09-06T10:13:17;98783.50;;;25.66;37.33
71873;BME280;59745;52.924;-2.388;2022-09-06T10:15:36;98783.89;;;26.04;36.98
71873;BME280;59745;52.924;-2.388;2022-09-06T10:17:59;98782.36;;;25.85;35.98
71873;BME280;59745;52.924;-2.388;2022-09-06T10:20:32;98785.66;;;26.01;36.37
71873;BME280;59745;52.924;-2.388;2022-09-06T10:22:54;98785.68;;;26.17;35.88
71873;BME280;59745;52.924;-2.388;2022-09-06T10:25:31;98785.03;;;25.84;36.41
71873;BME280;59745;52.924;-2.388;2022-09-06T10:27:43;98782.38;;;26.13;35.86
71873;BME280;59745;52.924;-2.388;2022-09-06T10:30:07;98780.19;;;26.00;36.70
71873;BME280;59745;52.924;-2.388;2022-09-06T10:32:39;98777.42;;;26.40;34.91
71873;BME280;59745;52.924;-2.388;2022-09-06T10:35:02;98779.79;;;26.32;35.31
71873;BME280;59745;52.924;-2.388;2022-09-06T10:37:28;98777.86;;;26.07;35.12
71873;BME280;59745;52.924;-2.388;2022-09-06T10:39:48;98776.23;;;26.06;34.58
71873;BME280;59745;52.924;-2.388;2022-09-06T10:42:14;98780.97;;;26.36;34.86
71873;BME280;59745;52.924;-2.388;2022-09-06T10:44:46;98776.73;;;25.51;36.05
71873;BME280;59745;52.924;-2.388;2022-09-06T10:47:08;98787.33;;;26.09;35.44
71873;BME280;59745;52.924;-2.388;2022-09-06T10:49:25;98782.89;;;26.24;35.39
71873;BME280;59745;52.924;-2.388;2022-09-06T10:51:53;98779.29;;;25.97;34.88
71873;BME280;59745;52.924;-2.388;2022-09-06T10:54:17;98775.17;;;25.12;35.90
71873;BME280;59745;52.924;-2.388;2022-09-06T10:56:42;98779.57;;;25.68;35.80
71873;BME280;59745;52.924;-2.388;2022-09-06T10:59:12;98777.47;;;25.68;35.03
71873;BME280;59745;52.924;-2.388;2022-09-06T11:01:35;98778.62;;;25.85;35.13
71873;BME280;59745;52.924;-2.388;2022-09-06T11:03:57;98773.32;;;25.98;34.93
71873;BME280;59745;52.924;-2.388;2022-09-06T11:06:21;98768.11;;;26.12;34.80
71873;BME280;59745;52.924;-2.388;2022-09-06T11:08:47;98764.85;;;26.06;34.74
71873;BME280;59745;52.924;-2.388;2022-09-06T11:11:15;98758.68;;;26.69;34.56
71873;BME280;59745;52.924;-2.388;2022-09-06T11:13:35;98752.52;;;26.44;34.54
71873;BME280;59745;52.924;-2.388;2022-09-06T11:16:03;98742.39;;;26.60;34.58
71873;BME280;59745;52.924;-2.388;2022-09-06T11:18:29;98739.42;;;26.77;34.19
71873;BME280;59745;52.924;-2.388;2022-09-06T11:21:00;98740.35;;;26.14;33.97
71873;BME280;59745;52.924;-2.388;2022-09-06T11:23:29;98731.51;;;26.47;33.47
71873;BME280;59745;52.924;-2.388;2022-09-06T11:25:57;98732.50;;;26.68;33.52
71873;BME280;59745;52.924;-2.388;2022-09-06T11:28:08;98726.75;;;26.72;33.40
71873;BME280;59745;52.924;-2.388;2022-09-06T11:30:30;98730.52;;;26.65;32.89
71873;BME280;59745;52.924;-2.388;2022-09-06T11:33:07;98729.70;;;27.09;33.02
71873;BME280;59745;52.924;-2.388;2022-09-06T11:35:22;98731.75;;;26.65;33.07
71873;BME280;59745;52.924;-2.388;2022-09-06T11:37:46;98731.20;;;26.90;33.49
71873;BME280;59745;52.924;-2.388;2022-09-06T11:40:14;98724.92;;;26.87;33.50
71873;BME280;59745;52.924;-2.388;2022-09-06T11:42:40;98721.79;;;27.31;32.28
71873;BME280;59745;52.924;-2.388;2022-09-06T11:45:13;98711.52;;;27.10;32.70
71873;BME280;59745;52.924;-2.388;2022-09-06T11:47:35;98711.41;;;26.86;32.55
71873;BME280;59745;52.924;-2.388;2022-09-06T11:49:51;98705.61;;;26.92;32.15
71873;BME280;59745;52.924;-2.388;2022-09-06T11:54:43;98699.20;;;27.01;31.74
71873;BME280;59745;52.924;-2.388;2022-09-06T11:57:14;98695.97;;;27.74;31.62
71873;BME280;59745;52.924;-2.388;2022-09-06T11:59:37;98694.94;;;27.54;31.37
71873;BME280;59745;52.924;-2.388;2022-09-06T12:02:00;98692.57;;;27.63;31.62
71873;BME280;59745;52.924;-2.388;2022-09-06T12:09:28;98689.39;;;28.16;30.74
71873;BME280;59745;52.924;-2.388;2022-09-06T12:11:42;98685.58;;;27.76;30.86
71873;BME280;59745;52.924;-2.388;2022-09-06T12:14:06;98674.88;;;27.64;31.25
71873;BME280;59745;52.924;-2.388;2022-09-06T12:18:58;98666.50;;;27.36;31.51
71873;BME280;59745;52.924;-2.388;2022-09-06T12:21:40;98664.64;;;27.49;31.42
71873;BME280;59745;52.924;-2.388;2022-09-06T12:23:46;98664.13;;;27.55;30.55
71873;BME280;59745;52.924;-2.388;2022-09-06T12:26:11;98656.46;;;27.25;30.73
71873;BME280;59745;52.924;-2.388;2022-09-06T12:28:42;98655.55;;;27.57;30.80
71873;BME280;59745;52.924;-2.388;2022-09-06T12:33:30;98658.62;;;27.80;32.07
71873;BME280;59745;52.924;-2.388;2022-09-06T12:38:23;98643.99;;;27.66;30.23
71873;BME280;59745;52.924;-2.388;2022-09-06T12:40:46;98643.59;;;27.70;30.67
71873;BME280;59745;52.924;-2.388;2022-09-06T12:43:11;98625.91;;;27.52;31.17
71873;BME280;59745;52.924;-2.388;2022-09-06T12:45:34;98628.54;;;27.71;31.91
71873;BME280;59745;52.924;-2.388;2022-09-06T12:48:05;98627.76;;;27.70;31.57
71873;BME280;59745;52.924;-2.388;2022-09-06T12:50:24;98619.30;;;27.53;30.78
71873;BME280;59745;52.924;-2.388;2022-09-06T12:52:52;98608.61;;;28.08;30.24
71873;BME280;59745;52.924;-2.388;2022-09-06T12:55:20;98607.06;;;28.36;30.11
71873;BME280;59745;52.924;-2.388;2022-09-06T12:57:46;98601.54;;;28.29;29.70
71873;BME280;59745;52.924;-2.388;2022-09-06T13:00:08;98591.57;;;28.10;29.52
71873;BME280;59745;52.924;-2.388;2022-09-06T13:02:37;98596.83;;;28.08;30.63